Newton-le-Willows, United Kingdom
Current Conditions -  °F | °C
As of 7:50 AM on Friday 24 Oct 2014 (Local Time) from EGGP Reporting Station
Light Rain Light Rain  
Wind Chill: 54°   Ceiling: 1400
Heat Index: 54°   Visibility: 2.5mi
Dew Point: 52°   Wind: 2mph
Humidity: 94%   Direction: NA
Pressure: 29.85"   Gusts: NA
Location:  53.45°N, 2.6°W
Report Text: EGGP 240650Z VRB02KT 4000 -RADZ FEW005 BKN014 12/11 Q1011
Loading
Personal Weather Stations






























Interactive Weather Map New forecast layout! Learn more

10-Day Weather Forecast

Advertisements
Track Severe Weather on mobile